createdAt,value
2018-07-09T00:00:42.461Z,14.60
2018-07-09T00:03:11.905Z,14.50
2018-07-09T00:05:42.553Z,14.50
2018-07-09T00:08:12.038Z,14.40
2018-07-09T00:10:52.431Z,14.40
2018-07-09T00:13:21.451Z,14.30
2018-07-09T00:15:49.878Z,14.20
2018-07-09T00:18:18.351Z,14.20
2018-07-09T00:20:46.793Z,14.10
2018-07-09T00:23:15.716Z,14.10
2018-07-09T00:25:44.624Z,14.00
2018-07-09T00:28:13.036Z,14.00
2018-07-09T00:30:41.464Z,13.90
2018-07-09T00:33:09.924Z,13.90
2018-07-09T00:35:38.470Z,13.90
2018-07-09T00:38:06.951Z,13.80
2018-07-09T00:40:35.465Z,13.80
2018-07-09T00:43:04.085Z,13.70
2018-07-09T00:45:32.880Z,13.70
2018-07-09T00:48:01.417Z,13.70
2018-07-09T00:50:30.037Z,13.60
2018-07-09T00:52:58.435Z,13.60
2018-07-09T00:55:27.115Z,13.60
2018-07-09T00:57:55.577Z,13.50
2018-07-09T01:00:24.235Z,13.50
2018-07-09T01:02:52.646Z,13.50
2018-07-09T01:05:21.067Z,13.40
2018-07-09T01:07:49.490Z,13.30
2018-07-09T01:10:18.762Z,13.30
2018-07-09T01:12:47.211Z,13.20
2018-07-09T01:15:15.916Z,13.10
2018-07-09T01:17:44.369Z,13.10
2018-07-09T01:20:12.844Z,13.00
2018-07-09T01:22:41.478Z,13.00
2018-07-09T01:25:09.965Z,12.90
2018-07-09T01:27:38.423Z,12.90
2018-07-09T01:30:12.023Z,12.90
2018-07-09T01:32:40.720Z,12.80
2018-07-09T01:35:10.189Z,12.80
2018-07-09T01:37:39.214Z,12.80
2018-07-09T01:40:07.789Z,12.70
2018-07-09T01:42:36.458Z,12.70
2018-07-09T01:45:05.040Z,12.60
2018-07-09T01:47:33.430Z,12.50
2018-07-09T01:50:01.953Z,12.50
2018-07-09T01:52:30.765Z,12.50
2018-07-09T01:54:59.345Z,12.40
2018-07-09T01:57:27.884Z,12.40
2018-07-09T01:59:56.306Z,12.40
2018-07-09T02:02:25.611Z,12.30
2018-07-09T02:04:54.045Z,12.30
2018-07-09T02:07:22.434Z,12.20
2018-07-09T02:09:51.090Z,12.20
2018-07-09T02:12:19.505Z,12.10
2018-07-09T02:14:47.892Z,12.10
2018-07-09T02:17:16.299Z,12.00
2018-07-09T02:19:44.797Z,12.00
2018-07-09T02:22:13.324Z,12.00
2018-07-09T02:24:41.734Z,11.90
2018-07-09T02:27:10.504Z,11.90
2018-07-09T02:29:38.951Z,11.90
2018-07-09T02:32:07.400Z,11.80
2018-07-09T02:34:35.979Z,11.80
2018-07-09T02:37:04.360Z,11.80
2018-07-09T02:39:32.776Z,11.80
2018-07-09T02:42:01.227Z,11.70
2018-07-09T02:44:29.659Z,11.70
2018-07-09T02:46:58.157Z,11.70
2018-07-09T02:49:26.757Z,11.70
2018-07-09T02:51:55.224Z,11.60
2018-07-09T02:54:23.690Z,11.60
2018-07-09T02:56:52.729Z,11.60
2018-07-09T02:59:21.216Z,11.50
2018-07-09T03:01:49.731Z,11.50
2018-07-09T03:04:18.231Z,11.50
2018-07-09T03:06:46.613Z,11.40
2018-07-09T03:09:15.105Z,11.40
2018-07-09T03:11:43.523Z,11.40
2018-07-09T03:14:11.950Z,11.40
2018-07-09T03:16:40.331Z,11.40
2018-07-09T03:19:08.787Z,11.30
2018-07-09T03:21:37.169Z,11.30
2018-07-09T03:24:05.714Z,11.30
2018-07-09T03:26:34.509Z,11.30
2018-07-09T03:29:02.921Z,11.20
2018-07-09T03:31:31.479Z,11.20
2018-07-09T03:33:59.940Z,11.20
2018-07-09T03:36:28.835Z,11.20
2018-07-09T03:38:57.236Z,11.20
2018-07-09T03:41:25.585Z,11.20
2018-07-09T03:43:54.012Z,11.20
2018-07-09T03:46:22.415Z,11.30
2018-07-09T03:48:50.769Z,11.30
2018-07-09T03:51:19.187Z,11.40
2018-07-09T03:53:47.571Z,11.50
2018-07-09T03:56:15.964Z,11.60
2018-07-09T03:58:44.350Z,11.60
2018-07-09T04:01:12.808Z,11.70
2018-07-09T04:03:41.177Z,11.70
2018-07-09T04:06:09.589Z,11.70
2018-07-09T04:08:38.582Z,11.80
2018-07-09T04:13:35.632Z,11.80
2018-07-09T04:16:04.016Z,11.90
2018-07-09T04:18:32.392Z,11.90
2018-07-09T04:21:00.854Z,11.90
2018-07-09T04:23:29.231Z,11.80
2018-07-09T04:25:57.578Z,11.80
2018-07-09T04:28:25.963Z,11.90
2018-07-09T04:30:54.506Z,11.90
2018-07-09T04:35:51.359Z,12.10
2018-07-09T04:38:19.735Z,12.10
2018-07-09T04:40:49.353Z,12.20
2018-07-09T04:43:17.796Z,12.30
2018-07-09T04:45:46.106Z,12.40
2018-07-09T04:48:15.096Z,12.50
2018-07-09T04:50:43.959Z,12.60
2018-07-09T04:53:12.880Z,12.70
2018-07-09T04:55:41.320Z,12.80
2018-07-09T04:58:10.001Z,12.90
2018-07-09T05:00:38.758Z,13.00
2018-07-09T05:03:07.100Z,13.20
2018-07-09T05:05:36.195Z,13.40
2018-07-09T05:08:05.283Z,13.60
2018-07-09T05:10:33.731Z,13.80
2018-07-09T05:13:02.415Z,14.00
2018-07-09T05:15:30.760Z,14.10
2018-07-09T05:17:59.077Z,14.20
2018-07-09T05:20:27.581Z,14.40
2018-07-09T05:22:56.221Z,14.50
2018-07-09T05:25:24.658Z,14.70
2018-07-09T05:27:53.104Z,15.00
2018-07-09T05:30:21.708Z,15.20
2018-07-09T05:32:50.067Z,15.40
2018-07-09T05:35:18.529Z,15.50
2018-07-09T05:37:46.959Z,15.60
2018-07-09T05:40:15.649Z,15.80
2018-07-09T05:42:44.096Z,16.00
2018-07-09T05:45:12.473Z,16.10
2018-07-09T05:47:40.909Z,16.40
2018-07-09T05:50:09.873Z,16.50
2018-07-09T05:52:38.227Z,16.50
2018-07-09T05:55:06.922Z,16.70
2018-07-09T05:57:35.302Z,16.90
2018-07-09T06:00:04.172Z,17.10
2018-07-09T06:02:32.808Z,17.30
2018-07-09T06:05:01.289Z,17.40
2018-07-09T06:07:29.858Z,17.60
2018-07-09T06:09:58.318Z,17.90
2018-07-09T06:12:26.704Z,18.10
2018-07-09T06:14:55.100Z,18.30
2018-07-09T06:17:23.571Z,18.40
2018-07-09T06:19:51.925Z,18.60
2018-07-09T06:22:20.368Z,18.80
2018-07-09T06:24:48.765Z,18.80
2018-07-09T06:27:17.182Z,18.90
2018-07-09T06:29:45.544Z,18.80
2018-07-09T06:32:13.892Z,18.80
2018-07-09T06:34:42.511Z,18.80
2018-07-09T06:37:11.033Z,19.10
2018-07-09T06:39:39.643Z,19.40
2018-07-09T06:42:08.083Z,19.70
2018-07-09T06:44:36.517Z,19.80
2018-07-09T06:47:04.856Z,20.00
2018-07-09T06:49:33.243Z,20.10
2018-07-09T06:52:01.670Z,20.00
2018-07-09T06:54:30.550Z,20.30
2018-07-09T06:56:59.464Z,20.40
2018-07-09T06:59:28.256Z,20.50
2018-07-09T07:01:56.856Z,21.00
2018-07-09T07:04:25.863Z,20.80
2018-07-09T07:06:54.283Z,20.60
2018-07-09T07:09:22.773Z,20.60
2018-07-09T07:11:51.508Z,20.50
2018-07-09T07:14:19.947Z,20.30
2018-07-09T07:16:48.338Z,20.20
2018-07-09T07:19:16.883Z,20.10
2018-07-09T07:21:45.243Z,20.00
2018-07-09T07:24:13.808Z,20.00
2018-07-09T07:26:42.421Z,20.10
2018-07-09T07:29:10.900Z,20.10
2018-07-09T07:31:39.309Z,20.30
2018-07-09T07:34:07.742Z,20.20
2018-07-09T07:36:36.391Z,20.50
2018-07-09T07:39:05.035Z,20.70
2018-07-09T07:41:33.452Z,20.90
2018-07-09T07:44:01.855Z,21.00
2018-07-09T07:46:30.606Z,21.20
2018-07-09T07:48:59.010Z,21.40
2018-07-09T07:51:28.961Z,21.20
2018-07-09T07:53:57.462Z,21.50
2018-07-09T07:58:54.000Z,21.60
2018-07-09T08:01:22.459Z,21.70
2018-07-09T08:03:50.899Z,21.80
2018-07-09T08:06:20.126Z,21.60
2018-07-09T08:08:48.743Z,21.70
2018-07-09T08:11:17.179Z,21.90
2018-07-09T08:13:45.821Z,22.00
2018-07-09T08:16:14.255Z,22.20
2018-07-09T08:18:42.747Z,22.30
2018-07-09T08:21:11.134Z,22.40
2018-07-09T08:23:39.585Z,22.80
2018-07-09T08:26:07.995Z,23.20
2018-07-09T08:28:36.416Z,23.10
2018-07-09T08:31:04.896Z,23.70
2018-07-09T08:33:33.320Z,23.90
2018-07-09T08:36:01.733Z,24.00
2018-07-09T08:38:30.128Z,23.30
2018-07-09T08:40:58.492Z,22.30
2018-07-09T08:43:26.898Z,22.10
2018-07-09T08:45:55.532Z,21.90
2018-07-09T08:48:23.928Z,22.30
2018-07-09T08:50:52.373Z,22.70
2018-07-09T08:53:20.704Z,22.90
2018-07-09T08:55:49.086Z,23.30
2018-07-09T08:58:17.469Z,23.60
2018-07-09T09:00:45.844Z,23.60
2018-07-09T09:03:14.248Z,23.60
2018-07-09T09:05:42.600Z,23.60
2018-07-09T09:08:11.736Z,23.70
2018-07-09T09:10:40.623Z,24.10
2018-07-09T09:13:08.984Z,24.10
2018-07-09T09:15:37.394Z,24.30
2018-07-09T09:18:05.848Z,24.50
2018-07-09T09:20:34.211Z,24.00
2018-07-09T09:23:02.606Z,24.00
2018-07-09T09:25:31.071Z,24.00
2018-07-09T09:27:59.748Z,23.70
2018-07-09T09:30:28.952Z,23.60
2018-07-09T09:32:57.578Z,23.50
2018-07-09T09:35:26.046Z,23.30
2018-07-09T09:37:54.537Z,23.10
2018-07-09T09:40:23.169Z,23.00
2018-07-09T09:42:51.824Z,23.00
2018-07-09T09:45:20.499Z,23.10
2018-07-09T09:47:48.925Z,23.00
2018-07-09T09:50:17.532Z,23.00
2018-07-09T09:52:45.900Z,22.90
2018-07-09T09:55:14.280Z,22.60
2018-07-09T09:57:42.698Z,22.50
2018-07-09T10:00:11.060Z,22.50
2018-07-09T10:02:39.547Z,22.90
2018-07-09T10:05:07.900Z,22.90
2018-07-09T10:07:36.364Z,23.00
2018-07-09T10:10:04.779Z,23.10
2018-07-09T10:12:33.204Z,23.10
2018-07-09T10:15:01.635Z,23.00
2018-07-09T10:17:29.985Z,23.00
2018-07-09T10:19:58.404Z,22.70
2018-07-09T10:22:26.824Z,22.70
2018-07-09T10:24:55.179Z,22.50
2018-07-09T10:27:23.586Z,22.30
2018-07-09T10:29:52.005Z,22.50
2018-07-09T10:32:20.402Z,22.90
2018-07-09T10:34:48.826Z,22.90
2018-07-09T10:37:18.056Z,23.30
2018-07-09T10:39:46.530Z,23.40
2018-07-09T10:42:15.217Z,23.40
2018-07-09T10:44:43.615Z,23.50
2018-07-09T10:47:12.649Z,23.50
2018-07-09T10:49:41.071Z,23.50
2018-07-09T10:52:09.497Z,23.40
2018-07-09T10:54:37.981Z,23.20
2018-07-09T10:57:06.444Z,22.90
2018-07-09T10:59:34.913Z,22.70
2018-07-09T11:04:31.534Z,22.40
2018-07-09T11:07:00.145Z,22.40
2018-07-09T11:09:28.696Z,22.40
2018-07-09T11:11:57.282Z,22.40
2018-07-09T11:14:25.692Z,22.50
2018-07-09T11:17:01.413Z,22.50
2018-07-09T11:19:29.832Z,22.50
2018-07-09T11:21:58.260Z,22.40
2018-07-09T11:24:26.657Z,22.30
2018-07-09T11:26:55.049Z,22.30
2018-07-09T11:29:23.590Z,22.30
2018-07-09T11:31:51.867Z,22.20
2018-07-09T11:34:20.281Z,22.20
2018-07-09T11:36:48.736Z,22.10
2018-07-09T11:39:17.126Z,22.20
2018-07-09T11:41:45.595Z,22.20
2018-07-09T11:44:14.062Z,22.20
2018-07-09T11:46:42.445Z,22.40
2018-07-09T11:49:10.820Z,22.60
2018-07-09T11:51:39.273Z,22.90
2018-07-09T11:54:07.671Z,23.10
2018-07-09T11:56:36.351Z,23.50
2018-07-09T11:59:04.807Z,24.00
2018-07-09T12:01:33.166Z,24.60
2018-07-09T12:06:29.643Z,24.20
2018-07-09T12:08:58.182Z,23.80
2018-07-09T12:11:26.656Z,23.80
2018-07-09T12:13:55.044Z,23.70
2018-07-09T12:16:23.444Z,23.70
2018-07-09T12:18:51.815Z,23.10
2018-07-09T12:23:48.405Z,23.30
2018-07-09T12:26:16.894Z,23.60
2018-07-09T12:28:45.286Z,23.60
2018-07-09T12:31:13.676Z,23.80
2018-07-09T12:33:42.123Z,23.60
2018-07-09T12:36:10.584Z,23.90
2018-07-09T12:38:38.961Z,24.00
2018-07-09T12:41:07.426Z,24.30
2018-07-09T12:43:36.163Z,24.60
2018-07-09T12:46:04.654Z,24.90
2018-07-09T12:48:33.198Z,25.00
2018-07-09T12:51:01.581Z,24.80
2018-07-09T12:53:30.075Z,24.30
2018-07-09T12:55:58.498Z,24.20
2018-07-09T12:58:27.470Z,24.30
2018-07-09T13:00:56.010Z,24.50
2018-07-09T13:03:24.896Z,25.00
2018-07-09T13:05:53.302Z,25.20
2018-07-09T13:08:21.666Z,24.90
2018-07-09T13:10:50.135Z,25.10
2018-07-09T13:13:18.589Z,24.70
2018-07-09T13:15:47.039Z,24.60
2018-07-09T13:18:15.514Z,24.50
2018-07-09T13:20:43.980Z,24.80
2018-07-09T13:23:14.263Z,25.10
2018-07-09T13:25:43.114Z,25.30
2018-07-09T13:28:11.567Z,25.50
2018-07-09T13:30:40.299Z,25.80
2018-07-09T13:35:37.262Z,26.20
2018-07-09T13:38:05.702Z,26.30
2018-07-09T13:40:34.265Z,26.20
2018-07-09T13:43:03.435Z,26.10
2018-07-09T13:45:31.876Z,26.10
2018-07-09T13:48:00.418Z,26.40
2018-07-09T13:50:29.128Z,26.60
2018-07-09T13:52:58.164Z,26.30
2018-07-09T13:55:26.653Z,26.00
2018-07-09T13:57:55.214Z,25.30
2018-07-09T14:00:23.956Z,25.20
2018-07-09T14:02:52.619Z,25.00
2018-07-09T14:05:21.307Z,24.80
2018-07-09T14:07:49.814Z,24.70
2018-07-09T14:10:18.394Z,24.50
2018-07-09T14:12:48.175Z,24.20
2018-07-09T14:15:31.063Z,24.00
2018-07-09T14:18:00.681Z,23.50
2018-07-09T14:20:32.607Z,23.40
2018-07-09T14:23:02.729Z,23.40
2018-07-09T14:25:31.175Z,23.30
2018-07-09T14:27:59.646Z,23.40
2018-07-09T14:30:28.060Z,23.40
2018-07-09T14:32:56.552Z,23.60
2018-07-09T14:35:24.997Z,23.60
2018-07-09T14:37:53.447Z,23.60
2018-07-09T14:40:21.966Z,23.60
2018-07-09T14:42:50.564Z,23.70
2018-07-09T14:45:19.065Z,23.60
2018-07-09T14:47:47.470Z,23.60
2018-07-09T14:50:15.912Z,23.60
2018-07-09T14:52:44.363Z,23.50
2018-07-09T14:55:12.801Z,23.60
2018-07-09T14:57:42.674Z,23.60
2018-07-09T15:00:11.239Z,23.40
2018-07-09T15:02:39.653Z,23.30
2018-07-09T15:05:08.099Z,23.40
2018-07-09T15:07:36.610Z,23.30
2018-07-09T15:10:05.216Z,23.20
2018-07-09T15:12:33.688Z,23.10
2018-07-09T15:15:02.134Z,23.20
2018-07-09T15:17:30.546Z,23.10
2018-07-09T15:19:58.902Z,23.10
2018-07-09T15:22:27.276Z,23.20
2018-07-09T15:24:55.721Z,23.40
2018-07-09T15:27:24.166Z,23.60
2018-07-09T15:29:52.708Z,23.70
2018-07-09T15:32:29.784Z,23.90
2018-07-09T15:34:58.353Z,23.90
2018-07-09T15:37:27.113Z,23.90
2018-07-09T15:39:55.703Z,24.00
2018-07-09T15:42:24.184Z,23.90
2018-07-09T15:44:52.756Z,23.90
2018-07-09T15:47:21.269Z,23.80
2018-07-09T15:49:49.953Z,23.70
2018-07-09T15:52:18.704Z,23.70
2018-07-09T15:54:47.307Z,23.30
2018-07-09T15:57:15.845Z,23.10
2018-07-09T15:59:44.634Z,22.90
2018-07-09T16:02:13.065Z,22.90
2018-07-09T16:04:41.574Z,22.80
2018-07-09T16:07:10.024Z,22.80
2018-07-09T16:09:38.480Z,22.50
2018-07-09T16:12:06.979Z,22.40
2018-07-09T16:14:35.390Z,22.10
2018-07-09T16:17:03.822Z,22.00
2018-07-09T16:19:32.251Z,21.90
2018-07-09T16:22:00.776Z,21.80
2018-07-09T16:24:29.195Z,21.70
2018-07-09T16:26:57.689Z,21.70
2018-07-09T16:29:26.967Z,21.80
2018-07-09T16:31:55.410Z,21.80
2018-07-09T16:36:53.069Z,21.80
2018-07-09T16:39:21.671Z,21.80
2018-07-09T16:44:18.440Z,21.80
2018-07-09T16:46:47.281Z,21.80
2018-07-09T16:49:15.804Z,21.90
2018-07-09T16:51:44.411Z,22.10
2018-07-09T16:54:12.908Z,22.00
2018-07-09T16:56:41.549Z,22.00
2018-07-09T16:59:10.045Z,22.10
2018-07-09T17:01:38.657Z,21.90
2018-07-09T17:04:07.227Z,21.80
2018-07-09T17:06:35.818Z,21.80
2018-07-09T17:09:06.888Z,21.80
2018-07-09T17:11:35.837Z,21.80
2018-07-09T17:14:04.411Z,21.70
2018-07-09T17:16:33.084Z,21.60
2018-07-09T17:19:02.543Z,21.70
2018-07-09T17:21:31.066Z,21.70
2018-07-09T17:24:00.149Z,21.60
2018-07-09T17:26:28.798Z,21.60
2018-07-09T17:28:57.212Z,21.60
2018-07-09T17:31:25.756Z,21.50
2018-07-09T17:33:54.176Z,21.30
2018-07-09T17:38:51.165Z,21.20
2018-07-09T17:41:19.635Z,21.10
2018-07-09T17:43:48.132Z,20.80
2018-07-09T17:46:16.608Z,20.70
2018-07-09T17:48:45.143Z,20.50
2018-07-09T17:51:16.090Z,20.30
2018-07-09T17:56:13.053Z,20.10
2018-07-09T17:58:41.540Z,20.00
2018-07-09T18:01:10.128Z,19.90
2018-07-09T18:03:38.676Z,19.90
2018-07-09T18:06:07.390Z,19.80
2018-07-09T18:08:36.493Z,19.70
2018-07-09T18:11:05.054Z,19.60
2018-07-09T18:13:34.587Z,19.60
2018-07-09T18:16:03.099Z,19.60
2018-07-09T18:18:31.625Z,19.60
2018-07-09T18:21:00.108Z,19.60
2018-07-09T18:23:29.546Z,19.60
2018-07-09T18:25:58.229Z,19.60
2018-07-09T18:28:27.042Z,19.60
2018-07-09T18:30:55.628Z,19.60
2018-07-09T18:33:24.381Z,19.50
2018-07-09T18:35:52.983Z,19.40
2018-07-09T18:38:21.656Z,19.40
2018-07-09T18:40:50.296Z,19.40
2018-07-09T18:43:18.776Z,19.30
2018-07-09T18:45:47.375Z,19.20
2018-07-09T18:48:15.977Z,19.10
2018-07-09T18:50:45.121Z,19.10
2018-07-09T18:53:13.655Z,19.00
2018-07-09T18:55:42.184Z,18.90
2018-07-09T18:58:10.999Z,18.80
2018-07-09T19:00:39.480Z,18.70
2018-07-09T19:03:07.925Z,18.70
2018-07-09T19:05:52.090Z,18.60
2018-07-09T19:08:21.060Z,18.50
2018-07-09T19:13:17.928Z,18.30
2018-07-09T19:15:46.770Z,18.20
2018-07-09T19:18:27.543Z,18.20
2018-07-09T19:21:35.399Z,18.10
2018-07-09T19:24:03.682Z,18.00
2018-07-09T19:26:31.022Z,17.80
2018-07-09T19:28:58.351Z,17.70
2018-07-09T19:31:26.869Z,17.70
2018-07-09T19:33:54.277Z,17.60
2018-07-09T19:36:21.654Z,17.50
2018-07-09T19:38:49.016Z,17.50
2018-07-09T19:41:16.483Z,17.40
2018-07-09T19:43:43.810Z,17.40
2018-07-09T19:46:11.207Z,17.30
2018-07-09T19:48:38.591Z,17.30
2018-07-09T19:51:05.904Z,17.30
2018-07-09T19:53:33.244Z,17.20
2018-07-09T19:56:00.625Z,17.20
2018-07-09T19:58:28.061Z,17.10
2018-07-09T20:00:55.452Z,17.10
2018-07-09T20:03:22.909Z,17.10
2018-07-09T20:05:50.294Z,17.00
2018-07-09T20:08:17.795Z,17.00
2018-07-09T20:10:50.379Z,17.00
2018-07-09T20:13:22.935Z,16.90
2018-07-09T20:15:55.541Z,16.90
2018-07-09T20:18:23.114Z,16.90
2018-07-09T20:20:50.437Z,16.90
2018-07-09T20:23:17.941Z,16.80
2018-07-09T20:25:45.300Z,16.80
2018-07-09T20:28:12.622Z,16.80
2018-07-09T20:30:39.980Z,16.70
2018-07-09T20:33:07.335Z,16.70
2018-07-09T20:35:34.643Z,16.70
2018-07-09T20:38:01.975Z,16.60
2018-07-09T20:40:29.306Z,16.60
2018-07-09T20:42:56.676Z,16.60
2018-07-09T20:45:24.450Z,16.50
2018-07-09T20:47:51.753Z,16.50
2018-07-09T20:50:19.072Z,16.40
2018-07-09T20:52:46.364Z,16.40
2018-07-09T20:55:13.717Z,16.30
2018-07-09T20:57:41.048Z,16.30
2018-07-09T21:00:08.337Z,16.30
2018-07-09T21:05:03.361Z,16.20
2018-07-09T21:07:30.725Z,16.10
2018-07-09T21:09:58.028Z,16.10
2018-07-09T21:12:25.315Z,16.10
2018-07-09T21:14:52.637Z,16.00
2018-07-09T21:17:19.913Z,16.00
2018-07-09T21:19:47.222Z,16.00
2018-07-09T21:22:14.500Z,15.90
2018-07-09T21:24:41.815Z,15.90
2018-07-09T21:27:09.149Z,15.90
2018-07-09T21:29:36.438Z,15.90
2018-07-09T21:32:03.754Z,15.90
2018-07-09T21:34:31.059Z,15.90
2018-07-09T21:36:58.371Z,15.80
2018-07-09T21:39:25.912Z,15.80
2018-07-09T21:41:53.235Z,15.80
2018-07-09T21:44:20.534Z,15.80
2018-07-09T21:46:48.916Z,15.80
2018-07-09T21:49:16.204Z,15.70
2018-07-09T21:51:43.499Z,15.70
2018-07-09T21:54:11.250Z,15.70
2018-07-09T21:56:38.611Z,15.70
2018-07-09T21:59:05.942Z,15.60
2018-07-09T22:01:33.252Z,15.60
2018-07-09T22:04:00.589Z,15.60
2018-07-09T22:06:27.886Z,15.60
2018-07-09T22:08:55.234Z,15.60
2018-07-09T22:11:22.717Z,15.60
2018-07-09T22:13:50.233Z,15.50
2018-07-09T22:16:17.848Z,15.50
2018-07-09T22:18:45.131Z,15.50
2018-07-09T22:21:12.989Z,15.50
2018-07-09T22:23:40.377Z,15.50
2018-07-09T22:26:07.665Z,15.50
2018-07-09T22:28:35.022Z,15.50
2018-07-09T22:31:03.455Z,15.40
2018-07-09T22:33:31.915Z,15.40
2018-07-09T22:36:00.411Z,15.40
2018-07-09T22:38:30.693Z,15.40
2018-07-09T22:40:59.294Z,15.40
2018-07-09T22:45:40.674Z,15.40
2018-07-09T22:48:09.316Z,15.40
2018-07-09T22:50:37.700Z,15.40
2018-07-09T22:53:06.576Z,15.40
2018-07-09T22:55:46.117Z,15.40
2018-07-09T22:58:14.824Z,15.30
2018-07-09T23:00:43.237Z,15.30
2018-07-09T23:03:17.924Z,15.30
2018-07-09T23:05:47.023Z,15.30
2018-07-09T23:08:16.852Z,15.30
2018-07-09T23:13:05.604Z,15.20
2018-07-09T23:15:50.555Z,15.10
2018-07-09T23:18:30.440Z,15.10
2018-07-09T23:23:07.120Z,15.00
2018-07-09T23:25:34.401Z,15.00
2018-07-09T23:28:01.727Z,14.90
2018-07-09T23:30:29.026Z,15.00
2018-07-09T23:32:56.316Z,14.90
2018-07-09T23:35:23.692Z,14.90
2018-07-09T23:37:51.003Z,14.90
2018-07-09T23:40:18.358Z,14.80
2018-07-09T23:42:45.717Z,14.80
2018-07-09T23:45:13.020Z,14.80
2018-07-09T23:47:40.322Z,14.70
2018-07-09T23:50:07.638Z,14.70
2018-07-09T23:52:34.958Z,14.70
2018-07-09T23:55:02.269Z,14.70
2018-07-09T23:59:48.046Z,14.60
